Date,TemperatureHighF,TemperatureAvgF,TemperatureLowF,DewpointHighF,DewpointAvgF,DewpointLowF,HumidityHigh,HumidityAvg,HumidityLow,PressureMaxIn,PressureMinIn,WindSpeedMaxMPH,WindSpeedAvgMPH,GustSpeedMaxMPH,PrecipitationSumIn
2013-6-1,85,77,74,77,75,72,96,91,75,30.01,29.95,10,1,0,1.09
2013-6-2,91,80,72,78,74,72,98,85,62,29.99,29.91,8,1,0,0.03
2013-6-3,88,79,73,77,74,72,97,86,65,30.02,29.90,6,1,0,1.30
2013-6-4,86,79,74,77,75,73,97,88,65,30.04,29.94,6,1,0,0.10
2013-6-5,84,81,79,78,76,75,91,87,78,30.01,29.89,6,2,0,0.04
2013-6-6,89,80,74,79,76,72,96,87,72,29.90,29.77,19,4,0,1.28
2013-6-7,92,78,74,79,74,73,97,88,61,29.98,29.83,6,1,0,0.91
2013-6-8,89,78,74,80,74,-100,97,89,74,30.09,29.95,9,-10,0,0.19
2013-6-9,88,82,78,77,76,74,94,81,66,30.10,30.02,14,3,0,0.00
2013-6-10,90,84,79,78,76,75,88,80,67,30.08,30.00,11,2,0,0.00
2013-6-11,90,82,77,80,77,75,95,86,64,30.09,30.00,6,1,0,0.94
2013-6-12,90,80,75,79,76,72,97,89,65,30.07,30.00,4,0,0,0.36
2013-6-13,92,80,74,80,75,72,98,85,58,30.04,29.93,5,0,0,0.17
2013-6-14,95,82,74,77,74,71,96,77,49,29.96,29.87,8,1,0,0.00
2013-6-15,92,83,75,77,75,72,96,78,55,30.04,29.92,9,1,0,0.00
2013-6-16,92,84,75,78,76,74,96,79,57,30.08,30.01,7,2,0,0.00
2013-6-17,93,85,77,78,76,75,94,76,58,30.07,30.00,8,2,0,0.00
2013-6-18,92,85,77,77,76,74,95,76,58,30.06,29.97,10,2,0,0.00
2013-6-19,93,84,78,79,76,74,94,77,56,30.04,29.97,9,2,0,0.00
2013-6-20,94,82,75,77,74,69,89,76,54,30.08,30.01,8,2,0,0.00
2013-6-21,92,84,76,77,74,72,93,75,54,30.10,30.02,11,2,0,0.00
2013-6-22,91,84,77,76,74,72,92,73,57,30.09,30.03,9,2,0,0.00
2013-6-23,89,84,78,77,74,72,86,75,60,30.12,30.04,13,3,0,0.00
2013-6-24,90,83,75,76,74,72,94,76,62,30.15,30.07,15,3,0,0.02
2013-6-25,90,83,77,78,76,73,90,78,64,30.12,30.03,12,3,0,0.00
2013-6-26,91,83,77,78,76,74,93,78,58,30.07,30.00,9,2,0,0.09
2013-6-27,89,82,77,78,76,73,92,81,67,30.05,29.95,9,1,0,0.10
2013-6-28,93,82,73,79,75,70,96,81,58,29.99,29.85,10,2,0,0.18
2013-6-29,95,80,74,78,72,-100,96,84,51,29.91,29.81,8,-10,0,0.04
2013-6-30,91,80,74,78,75,72,95,86,63,29.94,29.84,10,1,0,1.73